Time;durP1;ratioP1;P1;durP2;ratioP2;P2;SDS_P1;SDS_P2;PMS_P1;PMS_P2;Temp;Humidity;BMP_temperature;BMP_pressure;BME280_temperature;BME280_humidity;BME280_pressure;Samples;Min_cycle;Max_cycle;Signal;HPM_P1;HPM_P2
2021/12/23 00:04:18;;;;;;;18.20;10.15;;;;;;;-5.24;100.00;95655.00;10244197;28;20405;-72
2021/12/23 00:09:19;;;;;;;18.02;10.50;;;;;;;-5.17;100.00;95653.41;10259802;28;20027;-73
2021/12/23 00:14:21;;;;;;;19.95;9.10;;;;;;;-5.33;100.00;95655.91;10260489;28;20031;-75
2021/12/23 00:24:28;;;;;;;14.68;10.05;;;;;;;-5.45;100.00;95662.38;10234838;28;20027;-72
2021/12/23 00:29:28;;;;;;;14.48;11.02;;;;;;;-5.47;100.00;95656.44;10238268;29;20219;-74
2021/12/23 00:34:29;;;;;;;14.88;9.15;;;;;;;-5.49;100.00;95667.06;10243014;29;20191;-78
2021/12/23 00:39:31;;;;;;;11.10;9.55;;;;;;;-5.44;100.00;95670.06;10225145;29;20031;-70
2021/12/23 00:44:33;;;;;;;14.00;9.13;;;;;;;-5.57;100.00;95664.38;10257674;28;20082;-71
2021/12/23 00:49:33;;;;;;;19.83;10.15;;;;;;;-5.57;100.00;95675.66;10241533;28;20043;-75
2021/12/23 00:54:35;;;;;;;20.73;12.32;;;;;;;-5.66;100.00;95673.97;10248311;28;20413;-71
2021/12/23 00:59:37;;;;;;;13.60;10.27;;;;;;;-5.67;100.00;95665.25;10248982;28;20118;-76
2021/12/23 01:04:38;;;;;;;15.85;9.70;;;;;;;-5.78;100.00;95652.41;10243259;28;20557;-73
2021/12/23 01:09:38;;;;;;;15.20;10.93;;;;;;;-6.19;100.00;95644.97;10242524;28;20032;-76
2021/12/23 01:14:52;;;;;;;13.65;8.02;;;;;;;-6.33;100.00;95649.88;10250432;28;20039;-77
2021/12/23 01:19:55;;;;;;;12.85;8.82;;;;;;;-6.48;100.00;95645.13;10247660;29;20053;-82
2021/12/23 01:24:56;;;;;;;15.48;10.32;;;;;;;-6.39;100.00;95643.44;10248989;29;20030;-81
2021/12/23 01:30:01;;;;;;;11.55;8.13;;;;;;;-6.59;100.00;95640.09;10247026;29;20027;-72
2021/12/23 01:35:02;;;;;;;16.65;10.43;;;;;;;-6.73;100.00;95625.72;10232085;29;20106;-72
2021/12/23 01:40:04;;;;;;;11.98;10.23;;;;;;;-6.79;100.00;95645.41;10263251;28;20405;-70
2021/12/23 01:45:13;;;;;;;15.90;9.23;;;;;;;-6.74;100.00;95634.50;10247498;29;20031;-83
2021/12/23 01:50:16;;;;;;;18.35;9.20;;;;;;;-6.84;100.00;95629.31;10245353;29;20084;-77
2021/12/23 01:55:17;;;;;;;12.57;8.77;;;;;;;-6.97;100.00;95624.41;10248232;28;20481;-77
2021/12/23 02:00:20;;;;;;;20.77;11.27;;;;;;;-6.86;100.00;95623.41;10247844;28;20034;-80
2021/12/23 02:05:21;;;;;;;10.13;8.32;;;;;;;-6.69;100.00;95627.06;10264083;28;20115;-79
2021/12/23 02:10:22;;;;;;;14.52;10.00;;;;;;;-6.88;100.00;95630.56;10233628;29;20062;-80
2021/12/23 02:15:28;;;;;;;12.70;11.57;;;;;;;-6.84;100.00;95639.78;10234160;28;20568;-80
2021/12/23 02:20:33;;;;;;;12.65;9.50;;;;;;;-6.94;100.00;95647.63;10223893;29;20042;-82
2021/12/23 02:25:34;;;;;;;12.73;9.18;;;;;;;-6.85;100.00;95640.75;10209263;29;20074;-76
2021/12/23 02:30:38;;;;;;;16.95;9.07;;;;;;;-6.80;100.00;95641.13;10231669;29;20066;-77
2021/12/23 02:35:39;;;;;;;14.95;13.52;;;;;;;-6.89;100.00;95637.59;10230479;29;20600;-72
2021/12/23 02:40:42;;;;;;;18.80;10.98;;;;;;;-7.09;100.00;95641.22;10245085;28;20118;-73
2021/12/23 02:45:46;;;;;;;12.52;7.88;;;;;;;-7.02;100.00;95639.69;10263548;28;20114;-75
2021/12/23 02:50:49;;;;;;;16.55;13.20;;;;;;;-7.00;100.00;95644.75;10234366;28;20050;-71
2021/12/23 02:55:53;;;;;;;13.48;12.38;;;;;;;-7.01;100.00;95636.13;10246122;28;20038;-82
2021/12/23 03:00:56;;;;;;;14.30;13.02;;;;;;;-7.39;100.00;95656.94;10244467;28;20023;-79
2021/12/23 03:05:58;;;;;;;19.10;17.52;;;;;;;-7.73;100.00;95640.88;10244868;28;20461;-80
2021/12/23 03:10:59;;;;;;;8.60;7.82;;;;;;;-7.81;100.00;95628.53;10244078;29;20054;-82
2021/12/23 03:16:00;;;;;;;13.40;12.35;;;;;;;-7.82;100.00;95616.44;10245568;28;20465;-76
2021/12/23 03:21:03;;;;;;;15.60;14.40;;;;;;;-7.82;100.00;95613.03;10244575;28;20035;-75
2021/12/23 03:26:05;;;;;;;18.63;17.10;;;;;;;-8.03;100.00;95620.97;10216470;29;20462;-75
2021/12/23 03:31:11;;;;;;;14.57;13.13;;;;;;;-7.99;100.00;95614.53;10209740;28;20091;-81
2021/12/23 03:36:13;;;;;;;14.02;12.63;;;;;;;-7.83;100.00;95613.97;10205045;28;20036;-73
2021/12/23 03:41:15;;;;;;;15.07;13.15;;;;;;;-7.76;100.00;95623.75;10210042;29;20035;-76
2021/12/23 03:46:17;;;;;;;19.63;17.95;;;;;;;-7.83;100.00;95620.00;10210297;29;20060;-75
2021/12/23 03:51:17;;;;;;;21.48;19.95;;;;;;;-7.79;100.00;95629.22;10211465;29;20055;-68
2021/12/23 03:56:18;;;;;;;13.40;12.20;;;;;;;-7.67;100.00;95626.44;10212937;29;20422;-69
2021/12/23 04:01:20;;;;;;;13.23;10.45;;;;;;;-7.63;100.00;95622.59;10211367;29;20502;-72
2021/12/23 04:06:26;;;;;;;12.25;11.20;;;;;;;-7.50;100.00;95633.59;10223353;29;20027;-76
2021/12/23 04:11:27;;;;;;;9.68;8.98;;;;;;;-7.43;100.00;95629.47;10211809;29;20027;-72
2021/12/23 04:16:31;;;;;;;15.27;14.10;;;;;;;-7.40;100.00;95633.59;10218970;29;20059;-68
2021/12/23 04:21:33;;;;;;;10.27;9.43;;;;;;;-7.30;100.00;95644.00;10223670;29;20027;-78
2021/12/23 04:26:35;;;;;;;14.95;13.65;;;;;;;-7.35;100.00;95641.00;10244509;28;20039;-76
2021/12/23 04:31:36;;;;;;;15.98;15.00;;;;;;;-7.39;100.00;95636.06;10242690;28;20469;-76
2021/12/23 04:36:36;;;;;;;15.63;10.98;;;;;;;-7.41;100.00;95645.84;10244149;29;20097;-76
2021/12/23 04:41:38;;;;;;;10.95;7.75;;;;;;;-7.56;100.00;95640.19;10243040;29;20027;-69
2021/12/23 04:46:39;;;;;;;15.38;11.32;;;;;;;-7.79;100.00;95638.84;10242075;29;20036;-72
2021/12/23 04:51:41;;;;;;;15.18;10.52;;;;;;;-7.92;100.00;95639.09;10255574;28;20059;-72
2021/12/23 04:56:41;;;;;;;11.80;11.00;;;;;;;-7.99;100.00;95640.63;10257145;28;20032;-73
2021/12/23 05:01:41;;;;;;;11.60;10.60;;;;;;;-8.12;100.00;95649.53;10253797;28;20058;-71
2021/12/23 05:06:42;;;;;;;9.63;7.30;;;;;;;-8.07;100.00;95641.28;10217273;28;20051;-73
2021/12/23 05:11:44;;;;;;;16.25;9.80;;;;;;;-8.09;100.00;95646.63;10244241;28;20054;-75
2021/12/23 05:16:48;;;;;;;9.18;7.85;;;;;;;-8.07;100.00;95644.69;10225534;29;20520;-76
2021/12/23 05:21:49;;;;;;;12.10;10.25;;;;;;;-7.97;100.00;95646.50;10230296;29;20143;-75
2021/12/23 05:26:49;;;;;;;14.63;9.55;;;;;;;-7.85;100.00;95647.22;10240006;28;20126;-74
2021/12/23 05:31:50;;;;;;;15.50;14.07;;;;;;;-7.68;100.00;95643.09;10240669;29;20031;-75
2021/12/23 05:36:50;;;;;;;29.13;12.13;;;;;;;-7.74;100.00;95641.88;10233242;28;20491;-74
2021/12/23 05:41:51;;;;;;;11.77;8.85;;;;;;;-7.82;100.00;95650.38;10248719;28;20231;-80
2021/12/23 05:46:51;;;;;;;13.77;12.05;;;;;;;-7.94;100.00;95641.00;10254808;29;20027;-75
2021/12/23 05:51:51;;;;;;;9.25;8.45;;;;;;;-8.18;100.00;95654.44;10256493;28;20055;-73
2021/12/23 05:56:52;;;;;;;10.50;8.88;;;;;;;-8.14;100.00;95641.00;10252268;28;20038;-79
2021/12/23 06:01:52;;;;;;;12.27;11.15;;;;;;;-8.10;100.00;95652.00;10245640;29;20034;-74
2021/12/23 06:06:53;;;;;;;8.52;7.70;;;;;;;-8.04;100.00;95645.41;10217818;29;20019;-81
2021/12/23 06:11:54;;;;;;;24.23;10.25;;;;;;;-8.06;100.00;95658.59;10244771;29;20105;-75
2021/12/23 06:16:54;;;;;;;13.05;11.80;;;;;;;-7.82;100.00;95646.94;10220117;29;20055;-71
2021/12/23 06:21:55;;;;;;;10.93;9.93;;;;;;;-7.90;100.00;95655.44;10244401;28;20035;-76
2021/12/23 06:26:55;;;;;;;21.33;13.20;;;;;;;-7.88;100.00;95658.75;10261773;28;20498;-72
2021/12/23 06:31:56;;;;;;;40.83;15.15;;;;;;;-7.97;100.00;95662.16;10262503;28;20031;-76
2021/12/23 06:36:57;;;;;;;12.50;10.15;;;;;;;-8.07;100.00;95668.19;10233785;28;20023;-75
2021/12/23 06:41:57;;;;;;;13.50;10.45;;;;;;;-7.89;100.00;95659.69;10234439;29;20051;-77
2021/12/23 06:46:58;;;;;;;14.23;8.73;;;;;;;-7.80;100.00;95661.50;10205990;29;20031;-76
2021/12/23 06:52:00;;;;;;;16.13;10.25;;;;;;;-7.75;100.00;95658.47;10233846;29;20054;-78
2021/12/23 06:57:00;;;;;;;10.93;9.95;;;;;;;-7.68;100.00;95649.13;10231425;29;20758;-76
2021/12/23 07:02:01;;;;;;;10.63;9.30;;;;;;;-7.60;100.00;95653.69;10239031;28;20480;-81
2021/12/23 07:07:12;;;;;;;14.05;11.70;;;;;;;-7.49;100.00;95656.13;10206642;28;20577;-76
2021/12/23 07:12:13;;;;;;;16.88;8.70;;;;;;;-7.39;100.00;95653.53;10216494;29;20114;-75
2021/12/23 07:17:14;;;;;;;11.45;7.65;;;;;;;-7.23;100.00;95656.38;10205186;29;20099;-77
2021/12/23 07:22:14;;;;;;;11.35;10.27;;;;;;;-7.24;100.00;95659.13;10204681;29;20082;-77
2021/12/23 07:27:15;;;;;;;20.63;10.10;;;;;;;-7.31;100.00;95658.88;10211743;29;20040;-73
2021/12/23 07:32:15;;;;;;;11.85;9.65;;;;;;;-7.26;100.00;95679.34;10203667;29;20024;-72
2021/12/23 07:37:16;;;;;;;9.13;8.23;;;;;;;-7.19;100.00;95671.78;10229558;29;20023;-77
2021/12/23 07:42:18;;;;;;;14.52;10.38;;;;;;;-7.00;100.00;95676.13;10247008;28;20035;-73
2021/12/23 07:47:19;;;;;;;9.60;8.68;;;;;;;-6.88;100.00;95675.84;10244448;28;20027;-74
2021/12/23 07:52:21;;;;;;;17.45;11.48;;;;;;;-6.61;100.00;95670.81;10244477;28;20449;-76
2021/12/23 07:57:22;;;;;;;15.30;8.50;;;;;;;-6.21;100.00;95667.88;10234015;29;20039;-75
2021/12/23 08:02:23;;;;;;;25.13;12.95;;;;;;;-5.78;100.00;95669.91;10210721;28;20035;-75
2021/12/23 08:07:24;;;;;;;17.58;9.07;;;;;;;-5.17;100.00;95671.75;10243881;28;20038;-78
2021/12/23 08:12:28;;;;;;;20.40;11.20;;;;;;;-4.38;100.00;95663.88;10243146;29;20046;-76
2021/12/23 08:17:29;;;;;;;18.70;10.68;;;;;;;-3.96;100.00;95654.34;10225470;29;20486;-76
2021/12/23 08:22:30;;;;;;;19.70;9.57;;;;;;;-3.75;100.00;95650.44;10232510;28;20038;-77
2021/12/23 08:27:31;;;;;;;23.05;12.43;;;;;;;-3.35;100.00;95651.50;10233790;28;20175;-78
2021/12/23 08:32:32;;;;;;;20.23;11.57;;;;;;;-2.37;100.00;95637.38;10208775;28;20042;-76
2021/12/23 08:37:32;;;;;;;16.35;10.13;;;;;;;-0.96;86.63;95639.94;10220489;29;20028;-79
2021/12/23 08:42:35;;;;;;;20.45;10.10;;;;;;;-1.03;78.32;95631.97;10239761;28;20050;-78
2021/12/23 08:47:39;;;;;;;22.40;11.70;;;;;;;-1.10;78.77;95625.75;10263773;28;20039;-77
2021/12/23 08:52:39;;;;;;;22.92;11.10;;;;;;;-1.55;78.55;95630.84;10234911;28;20199;-75
2021/12/23 08:57:41;;;;;;;29.55;13.18;;;;;;;-1.35;87.22;95620.66;10202959;29;20643;-71
2021/12/23 09:02:42;;;;;;;37.85;17.40;;;;;;;-1.01;79.83;95608.84;10216147;29;20122;-76
2021/12/23 09:07:44;;;;;;;37.30;15.80;;;;;;;-1.07;77.75;95596.38;10194508;29;20076;-72
2021/12/23 09:12:45;;;;;;;35.42;14.30;;;;;;;0.19;75.34;95587.66;10242442;28;20042;-81
2021/12/23 09:17:45;;;;;;;41.35;17.88;;;;;;;0.70;67.75;95571.69;10232833;28;20043;-73
2021/12/23 09:22:48;;;;;;;34.63;15.60;;;;;;;0.11;65.92;95575.38;10220803;28;20626;-74
2021/12/23 09:32:52;;;;;;;36.75;16.35;;;;;;;0.48;70.03;95557.66;10223987;28;20039;-75
2021/12/23 09:37:53;;;;;;;35.30;16.27;;;;;;;0.68;66.56;95552.53;10225604;28;20059;-77
2021/12/23 09:42:54;;;;;;;31.52;15.82;;;;;;;1.08;65.22;95541.44;10245432;29;20039;-72
2021/12/23 09:47:57;;;;;;;42.58;16.40;;;;;;;1.57;63.32;95540.47;10246829;28;20322;-80
2021/12/23 09:53:00;;;;;;;38.88;14.27;;;;;;;2.87;55.62;95528.94;10230226;29;20066;-73
2021/12/23 09:58:02;;;;;;;30.42;13.98;;;;;;;4.69;48.19;95496.09;10246179;28;20463;-75
2021/12/23 10:03:04;;;;;;;35.92;14.93;;;;;;;7.13;42.83;95476.59;10223681;28;20605;-77
2021/12/23 10:08:06;;;;;;;35.42;15.63;;;;;;;7.21;40.11;95471.94;10226507;28;20046;-78
2021/12/23 10:40:42;;;;;;;23.08;10.35;;;;;;;12.63;30.34;95416.16;10237012;28;20035;-79
2021/12/23 10:45:56;;;;;;;24.25;11.38;;;;;;;12.87;30.12;95412.91;10241217;28;20035;-75
2021/12/23 10:51:06;;;;;;;22.42;10.63;;;;;;;13.91;28.65;95408.88;10241679;29;20054;-71
2021/12/23 11:02:11;;;;;;;30.95;11.73;;;;;;;9.32;33.91;95398.00;10248681;28;20030;-77
2021/12/23 11:07:22;;;;;;;24.23;11.23;;;;;;;6.52;36.79;95406.53;10241155;28;20042;-74
2021/12/23 11:44:18;;;;;;;22.13;9.52;;;;;;;13.57;28.88;95331.25;10219153;28;20672;-76
2021/12/23 11:49:19;;;;;;;19.08;8.70;;;;;;;14.70;27.46;95312.34;10221990;28;20047;-74
2021/12/23 11:54:30;;;;;;;23.73;9.73;;;;;;;13.07;29.14;95315.72;10222884;28;20050;-77
2021/12/23 11:59:32;;;;;;;21.38;10.73;;;;;;;11.31;30.44;95313.19;10202066;29;20035;-72
2021/12/23 12:04:46;;;;;;;20.30;10.00;;;;;;;7.98;35.85;95316.44;10225791;29;20046;-80
2021/12/23 12:09:59;;;;;;;24.63;11.95;;;;;;;5.15;40.68;95334.19;10240709;28;20035;-80
2021/12/23 12:15:01;;;;;;;17.85;10.40;;;;;;;3.75;44.12;95342.47;10242767;28;20042;-72
2021/12/23 12:20:22;;;;;;;22.35;12.35;;;;;;;2.48;47.75;95337.69;10250883;28;20058;-76
2021/12/23 12:25:25;;;;;;;29.58;13.05;;;;;;;1.78;51.06;95334.69;10225290;28;20031;-73
2021/12/23 12:30:50;;;;;;;29.45;14.35;;;;;;;1.42;53.58;95333.22;10247506;28;20106;-72
2021/12/23 12:36:08;;;;;;;22.58;12.63;;;;;;;0.99;54.08;95336.94;10235538;28;20027;-77
2021/12/23 12:41:24;;;;;;;24.83;13.63;;;;;;;0.96;54.90;95332.91;10234094;29;20031;-76
2021/12/23 12:46:36;;;;;;;26.38;11.82;;;;;;;0.71;55.99;95323.81;10210193;28;20031;-75
2021/12/23 12:51:40;;;;;;;19.90;11.05;;;;;;;0.26;58.87;95322.34;10200375;29;20064;-75
2021/12/23 12:56:49;;;;;;;26.17;10.57;;;;;;;0.17;62.30;95318.25;10234352;29;20035;-74
2021/12/23 13:01:53;;;;;;;23.30;11.85;;;;;;;0.10;62.91;95318.19;10224540;29;20457;-78
2021/12/23 13:06:59;;;;;;;21.83;10.77;;;;;;;0.02;64.93;95315.69;10242897;28;20031;-73
2021/12/23 13:12:07;;;;;;;26.35;11.15;;;;;;;-0.12;68.50;95309.50;10233531;29;20458;-67
2021/12/23 13:17:07;;;;;;;19.50;9.88;;;;;;;-0.04;69.21;95306.72;10238192;29;20036;-77
2021/12/23 13:22:11;;;;;;;24.02;9.77;;;;;;;-0.26;69.05;95310.41;10242162;28;20086;-70
2021/12/23 13:27:12;;;;;;;19.95;11.25;;;;;;;-0.33;72.44;95313.00;10241467;28;20039;-78
2021/12/23 13:32:13;;;;;;;25.00;11.23;;;;;;;-0.38;74.60;95323.31;10233817;28;20043;-77
2021/12/23 13:37:13;;;;;;;17.58;9.43;;;;;;;-0.43;75.00;95318.59;10227272;29;20061;-74
2021/12/23 13:42:14;;;;;;;24.50;12.15;;;;;;;-0.80;76.36;95315.19;10218357;29;20043;-71
2021/12/23 13:47:17;;;;;;;20.25;10.82;;;;;;;-0.73;77.72;95312.63;10231011;29;20502;-73
2021/12/23 13:52:34;;;;;;;18.67;9.63;;;;;;;-0.75;80.83;95314.66;10231447;28;20513;-77
2021/12/23 13:57:46;;;;;;;15.90;9.35;;;;;;;-0.81;81.18;95308.31;10239416;28;20113;-78
2021/12/23 14:02:51;;;;;;;19.63;10.63;;;;;;;-0.75;81.40;95312.03;10247851;28;20037;-71
2021/12/23 14:07:52;;;;;;;22.35;10.93;;;;;;;-0.93;82.89;95307.16;10259920;28;20039;-75
2021/12/23 14:12:58;;;;;;;22.98;11.05;;;;;;;-0.98;83.13;95297.16;10246410;29;20054;-69
2021/12/23 14:18:32;;;;;;;21.60;10.68;;;;;;;-0.95;83.30;95285.41;10247341;28;20032;-77
2021/12/23 14:23:44;;;;;;;24.85;12.07;;;;;;;-0.91;84.87;95284.03;10251227;28;20469;-78
2021/12/23 14:28:53;;;;;;;23.85;13.50;;;;;;;-1.06;86.54;95281.44;10248098;28;20501;-75
2021/12/23 14:33:56;;;;;;;23.00;11.23;;;;;;;-1.15;89.39;95274.66;10247986;28;20043;-70
2021/12/23 14:39:05;;;;;;;24.48;11.75;;;;;;;-1.18;91.14;95270.56;10244734;28;20024;-78
2021/12/23 14:44:11;;;;;;;;;;;;;;;-1.23;90.81;95273.78;10244257;28;20031;-80
2021/12/23 14:55:08;;;;;;;22.73;10.85;;;;;;;-1.51;93.83;95286.81;10259965;28;20493;-79
2021/12/23 15:00:28;;;;;;;19.85;10.02;;;;;;;-1.55;95.86;95283.75;10237993;29;20071;-72
2021/12/23 15:05:30;;;;;;;24.50;11.80;;;;;;;-1.65;96.92;95279.75;10226872;29;20039;-78
2021/12/23 15:10:37;;;;;;;27.52;12.98;;;;;;;-1.74;98.82;95276.41;10240390;28;20043;-76
2021/12/23 15:15:37;;;;;;;29.33;15.35;;;;;;;-1.81;100.00;95276.31;10243357;28;20117;-76
2021/12/23 15:20:47;;;;;;;34.88;15.13;;;;;;;-1.83;100.00;95267.75;10187364;29;20047;-80
2021/12/23 15:25:47;;;;;;;34.90;15.95;;;;;;;-1.75;100.00;95264.22;10220848;28;20043;-77
2021/12/23 15:30:48;;;;;;;41.63;14.70;;;;;;;-1.73;100.00;95270.13;10237277;28;20035;-75
2021/12/23 15:35:49;;;;;;;37.58;16.77;;;;;;;-1.70;100.00;95267.13;10232175;28;20055;-80
2021/12/23 15:40:49;;;;;;;34.58;15.60;;;;;;;-1.81;100.00;95271.03;10221182;28;20512;-81
2021/12/23 15:45:54;;;;;;;43.70;18.55;;;;;;;-1.83;100.00;95272.22;10202647;29;20588;-77
2021/12/23 15:50:59;;;;;;;35.75;17.05;;;;;;;-1.83;100.00;95274.84;10213408;29;20090;-77
2021/12/23 15:56:01;;;;;;;33.05;17.20;;;;;;;-1.87;100.00;95260.41;10202739;29;20035;-72
2021/12/23 16:01:03;;;;;;;34.58;18.25;;;;;;;-1.85;100.00;95264.50;10200033;28;20597;-81
2021/12/23 16:11:22;;;;;;;34.70;16.67;;;;;;;-1.90;100.00;95272.13;10210987;29;20035;-77
2021/12/23 16:16:23;;;;;;;43.72;21.48;;;;;;;-2.00;100.00;95269.75;10237356;28;20023;-77
2021/12/23 16:21:26;;;;;;;54.35;24.05;;;;;;;-2.00;100.00;95263.69;10254444;28;20114;-74
2021/12/23 16:26:27;;;;;;;38.33;20.70;;;;;;;-2.06;100.00;95259.97;10227702;29;20220;-76
2021/12/23 16:31:31;;;;;;;46.35;22.35;;;;;;;-2.10;100.00;95261.34;10241532;28;20027;-75
2021/12/23 16:36:31;;;;;;;53.50;25.23;;;;;;;-2.21;100.00;95265.22;10239369;28;20019;-76
2021/12/23 16:41:32;;;;;;;53.13;25.38;;;;;;;-2.27;100.00;95268.59;10222492;29;20030;-80
2021/12/23 16:46:32;;;;;;;56.58;24.20;;;;;;;-2.17;100.00;95260.44;10239019;29;20533;-68
2021/12/23 16:51:33;;;;;;;60.40;25.35;;;;;;;-2.13;100.00;95259.88;10236543;29;20062;-81
2021/12/23 17:01:52;;;;;;;68.90;24.65;;;;;;;-1.99;100.00;95260.06;10225714;29;20039;-73
2021/12/23 17:06:54;;;;;;;51.50;23.55;;;;;;;-1.96;100.00;95259.69;10241413;29;20035;-75
2021/12/23 17:11:56;;;;;;;57.15;24.35;;;;;;;-2.07;100.00;95260.97;10246952;28;20045;-76
2021/12/23 17:16:56;;;;;;;56.38;24.02;;;;;;;-2.19;100.00;95259.78;10229032;28;20382;-75
2021/12/23 17:21:58;;;;;;;57.80;25.83;;;;;;;-2.09;99.96;95258.50;10374236;23;20055;-73
2021/12/23 17:27:05;;;;;;;66.40;26.20;;;;;;;-2.00;98.20;95240.00;10318441;28;20093;-73
2021/12/23 17:32:06;;;;;;;61.92;29.38;;;;;;;-2.13;96.13;95241.44;10319121;28;20132;-73
2021/12/23 17:37:07;;;;;;;51.03;25.48;;;;;;;-2.02;94.26;95224.38;10324340;28;20117;-75
2021/12/23 17:42:08;;;;;;;55.85;22.13;;;;;;;-2.08;95.38;95238.25;10326190;28;20167;-76
2021/12/23 17:47:08;;;;;;;41.65;18.77;;;;;;;-1.98;94.43;95232.72;10324267;28;20037;-73
2021/12/23 17:52:09;;;;;;;36.75;17.05;;;;;;;-1.81;93.07;95239.44;10324653;28;20108;-77
2021/12/23 17:57:09;;;;;;;44.15;15.32;;;;;;;-1.80;93.24;95246.34;10310257;28;20081;-73
2021/12/23 18:02:10;;;;;;;30.30;15.85;;;;;;;-1.96;91.88;95242.06;10295315;28;20037;-72
2021/12/23 18:07:11;;;;;;;28.80;15.38;;;;;;;-2.09;97.00;95247.16;10322648;28;20026;-73
2021/12/23 18:12:15;;;;;;;32.40;15.75;;;;;;;-2.08;97.36;95244.34;10320632;28;20488;-76
2021/12/23 18:17:15;;;;;;;33.35;15.13;;;;;;;-1.96;95.68;95233.34;10304904;28;20565;-75
2021/12/23 18:22:16;;;;;;;30.67;17.35;;;;;;;-2.00;95.47;95230.25;10323991;28;20054;-75
2021/12/23 18:27:19;;;;;;;31.55;13.93;;;;;;;-1.92;96.75;95221.47;10323558;28;20022;-72
2021/12/23 18:32:22;;;;;;;26.52;15.52;;;;;;;-1.83;96.66;95224.81;10323913;28;20041;-77
2021/12/23 18:37:27;;;;;;;35.42;13.43;;;;;;;-1.90;94.97;95227.34;10327298;28;20026;-76
2021/12/23 18:42:36;;;;;;;30.48;13.55;;;;;;;-1.92;96.04;95235.44;10322670;28;20526;-74
2021/12/23 18:47:37;;;;;;;26.55;14.13;;;;;;;-1.95;96.15;95238.44;10322000;28;20715;-77
2021/12/23 18:52:41;;;;;;;31.63;15.23;;;;;;;-1.78;99.28;95243.53;10325036;28;20030;-75
2021/12/23 18:58:02;;;;;;;29.65;14.27;;;;;;;-1.79;97.45;95241.88;10562756;27;20380;-76
2021/12/23 19:03:11;;;;;;;33.28;16.08;;;;;;;-1.67;96.93;95244.88;10567176;28;20055;-71
2021/12/23 19:08:11;;;;;;;32.65;15.93;;;;;;;-1.99;98.26;95241.63;10565319;28;20036;-78
2021/12/23 19:13:12;;;;;;;31.48;15.93;;;;;;;-2.15;100.00;95237.34;10567405;28;20514;-69
2021/12/23 19:18:13;;;;;;;33.28;17.30;;;;;;;-2.16;100.00;95233.06;10520652;28;20088;-71
2021/12/23 19:23:14;;;;;;;30.98;14.02;;;;;;;-2.44;100.00;95223.19;10538495;28;20021;-74
2021/12/23 19:28:15;;;;;;;30.88;14.70;;;;;;;-2.36;100.00;95215.19;10548817;28;20459;-69
2021/12/23 19:33:16;;;;;;;34.65;19.70;;;;;;;-2.24;100.00;95224.28;10535994;28;20030;-71
2021/12/23 19:38:21;;;;;;;49.40;21.52;;;;;;;-2.15;100.00;95206.59;10518339;28;20067;-74
2021/12/23 19:43:21;;;;;;;53.95;23.65;;;;;;;-2.09;100.00;95208.47;10547119;28;20085;-72
2021/12/23 19:48:23;;;;;;;44.05;22.67;;;;;;;-2.16;100.00;95198.84;10560691;28;20024;-77
2021/12/23 19:53:23;;;;;;;51.92;24.67;;;;;;;-2.20;100.00;95193.13;10535167;28;20048;-73
2021/12/23 19:58:25;;;;;;;55.67;25.58;;;;;;;-2.07;100.00;95187.22;10500474;28;20021;-78
2021/12/23 20:03:26;;;;;;;50.42;23.98;;;;;;;-1.92;100.00;95180.13;10518368;28;20052;-75
2021/12/23 20:08:27;;;;;;;56.85;23.73;;;;;;;-1.89;100.00;95178.94;10527858;28;20561;-75
2021/12/23 20:13:28;;;;;;;56.45;23.73;;;;;;;-1.99;100.00;95186.31;10486737;28;20403;-76
2021/12/23 20:18:29;;;;;;;49.83;24.65;;;;;;;-2.18;100.00;95191.13;10522349;28;20035;-75
2021/12/23 20:23:30;;;;;;;57.95;26.00;;;;;;;-2.04;100.00;95202.66;10488512;28;20055;-76
2021/12/23 20:28:31;;;;;;;47.17;22.65;;;;;;;-2.21;100.00;95193.31;10488732;28;20024;-73
2021/12/23 20:33:32;;;;;;;37.63;21.45;;;;;;;-2.37;100.00;95189.88;10487716;28;20506;-74
2021/12/23 20:38:33;;;;;;;55.20;24.52;;;;;;;-2.44;100.00;95189.78;10489493;28;20035;-76
2021/12/23 20:43:33;;;;;;;44.35;23.05;;;;;;;-2.40;100.00;95192.84;10526401;28;20035;-74
2021/12/23 20:48:34;;;;;;;44.65;21.70;;;;;;;-2.43;100.00;95196.69;10525307;28;20036;-72
2021/12/23 20:53:40;;;;;;;57.40;24.13;;;;;;;-2.32;100.00;95195.41;10523711;28;20151;-76
2021/12/23 20:58:40;;;;;;;46.60;20.55;;;;;;;-2.49;100.00;95186.06;10521546;28;20062;-71
2021/12/23 21:03:41;;;;;;;49.35;21.67;;;;;;;-2.37;100.00;95176.72;10522547;28;20458;-74
2021/12/23 21:08:42;;;;;;;39.75;22.27;;;;;;;-2.35;100.00;95164.19;10527970;28;20463;-75
2021/12/23 21:13:43;;;;;;;54.30;20.83;;;;;;;-2.26;100.00;95171.00;10528695;28;20031;-72
2021/12/23 21:18:44;;;;;;;36.38;20.10;;;;;;;-2.04;100.00;95160.50;10475270;28;20054;-74
2021/12/23 21:23:50;;;;;;;41.10;19.48;;;;;;;-2.09;100.00;95160.28;10486533;28;20038;-72
2021/12/23 21:28:51;;;;;;;36.13;17.08;;;;;;;-1.96;100.00;95151.72;10518559;28;20031;-77
2021/12/23 21:33:53;;;;;;;38.70;19.38;;;;;;;-1.90;100.00;95143.88;10487361;28;20043;-80
2021/12/23 21:38:55;;;;;;;40.33;22.98;;;;;;;-1.85;100.00;95137.25;10500465;28;20059;-75
2021/12/23 21:43:55;;;;;;;49.35;20.65;;;;;;;-1.77;100.00;95132.66;10526143;28;20028;-73
2021/12/23 21:48:59;;;;;;;39.05;20.58;;;;;;;-1.87;100.00;95133.97;10522759;28;20489;-75
2021/12/23 21:54:04;;;;;;;42.70;18.20;;;;;;;-2.01;100.00;95133.84;10525495;28;20048;-75
2021/12/23 21:59:04;;;;;;;40.95;16.70;;;;;;;-1.82;100.00;95121.88;10525666;28;20591;-76
2021/12/23 22:04:07;;;;;;;31.25;15.27;;;;;;;-1.82;100.00;95105.25;10508945;28;20051;-76
2021/12/23 22:09:08;;;;;;;41.97;17.42;;;;;;;-2.17;100.00;95107.72;10506931;28;20063;-77
2021/12/23 22:14:08;;;;;;;40.35;19.75;;;;;;;-2.18;100.00;95090.28;10501348;28;20486;-69
2021/12/23 22:19:09;;;;;;;37.08;17.55;;;;;;;-1.99;100.00;95081.78;10491303;28;20124;-70
2021/12/23 22:24:10;;;;;;;32.53;17.00;;;;;;;-2.08;100.00;95075.81;10504481;28;20028;-71
2021/12/23 22:29:13;;;;;;;29.85;15.27;;;;;;;-2.13;100.00;95074.75;10522972;28;20029;-69
2021/12/23 22:34:14;;;;;;;31.88;16.58;;;;;;;-2.27;100.00;95068.50;10480569;28;20043;-69
2021/12/23 22:39:16;;;;;;;31.58;17.30;;;;;;;-2.27;100.00;95071.13;10485378;28;20027;-73
2021/12/23 22:44:16;;;;;;;37.70;18.20;;;;;;;-2.16;100.00;95073.28;10508149;28;20024;-74
2021/12/23 22:49:18;;;;;;;34.95;19.30;;;;;;;-2.16;100.00;95078.56;10510127;28;20485;-78
2021/12/23 22:54:19;;;;;;;35.53;14.48;;;;;;;-2.30;100.00;95074.94;10491684;28;20060;-74
2021/12/23 22:59:20;;;;;;;32.15;16.27;;;;;;;-2.29;100.00;95058.16;10466610;28;20041;-74
2021/12/23 23:04:21;;;;;;;43.13;17.33;;;;;;;-2.46;100.00;95052.28;10484139;28;20028;-77
2021/12/23 23:09:24;;;;;;;32.33;16.70;;;;;;;-2.32;100.00;95050.63;10514148;28;20047;-73
2021/12/23 23:14:46;;;;;;;42.03;18.50;;;;;;;-2.61;100.00;95044.41;10527062;28;20062;-73
2021/12/23 23:19:49;;;;;;;37.00;16.48;;;;;;;-2.57;100.00;95039.59;10525159;28;20106;-73
2021/12/23 23:24:59;;;;;;;32.30;19.27;;;;;;;-2.49;100.00;95050.00;10508642;28;20028;-70
2021/12/23 23:35:23;;;;;;;38.67;21.13;;;;;;;-2.54;100.00;95052.41;10486236;28;20054;-76
2021/12/23 23:40:32;;;;;;;37.78;20.73;;;;;;;-2.75;100.00;95055.75;10484007;28;20157;-72
2021/12/23 23:45:48;;;;;;;46.80;21.77;;;;;;;-2.82;100.00;95052.22;10507342;28;20037;-74
2021/12/23 23:50:51;;;;;;;43.60;22.50;;;;;;;-2.73;100.00;95045.03;10489215;28;20036;-76
2021/12/23 23:56:05;;;;;;;49.25;22.83;;;;;;;-2.77;100.00;95019.09;10489824;28;20056;-74
